Time;durP1;ratioP1;P1;durP2;ratioP2;P2;SDS_P1;SDS_P2;PMS_P1;PMS_P2;Temp;Humidity;BMP_temperature;BMP_pressure;BME280_temperature;BME280_humidity;BME280_pressure;Samples;Min_cycle;Max_cycle;Signal;HPM_P1;HPM_P2
2023/10/20 00:02:27;;;;;;;;;;;;;;;7.84;88.18;98736.77;107459;279;114212;-52
2023/10/20 00:05:05;;;;;;;;;;;;;;;7.88;88.18;98730.85;107458;279;96649;-56
2023/10/20 00:07:44;;;;;;;;;;;;;;;7.91;88.14;98721.40;107538;279;96373;-53
2023/10/20 00:10:20;;;;;;;;;;;;;;;7.88;88.39;98712.77;107421;279;120748;-52
2023/10/20 00:12:53;;;;;;;;;;;;;;;7.85;88.33;98701.91;107516;279;104783;-52
2023/10/20 00:15:35;;;;;;;;;;;;;;;7.82;89.22;98704.64;107401;279;114544;-51
2023/10/20 00:21:24;;;;;;;;;;;;;;;7.87;88.91;98712.56;107419;279;97565;-53
2023/10/20 00:24:01;;;;;;;;;;;;;;;7.89;88.73;98715.83;107418;279;120611;-52
2023/10/20 00:26:41;;;;;;;;;;;;;;;7.87;88.81;98722.91;107419;279;105549;-52
2023/10/20 00:29:20;;;;;;;;;;;;;;;7.89;88.93;98718.69;107481;279;113131;-56
2023/10/20 00:31:55;;;;;;;;;;;;;;;7.94;88.78;98716.59;107398;279;95979;-56
2023/10/20 00:34:29;;;;;;;;;;;;;;;8.00;88.87;98719.45;107486;279;96235;-51
2023/10/20 00:37:08;;;;;;;;;;;;;;;8.02;88.95;98719.98;107394;279;120082;-51
2023/10/20 00:39:48;;;;;;;;;;;;;;;8.03;88.71;98721.17;107462;271;106200;-53
2023/10/20 00:42:22;;;;;;;;;;;;;;;8.04;88.79;98718.36;107394;279;115822;-52
2023/10/20 00:44:57;;;;;;;;;;;;;;;8.01;89.35;98717.34;107502;279;97203;-55
2023/10/20 00:47:32;;;;;;;;;;;;;;;8.00;89.08;98713.54;107403;280;97240;-56
2023/10/20 00:50:11;;;;;;;;;;;;;;;8.01;89.11;98711.44;107417;279;120152;-56
2023/10/20 00:52:50;;;;;;;;;;;;;;;8.00;89.28;98708.91;107495;279;105108;-56
2023/10/20 00:55:25;;;;;;;;;;;;;;;7.99;89.28;98706.77;107453;279;113548;-56
2023/10/20 00:58:00;;;;;;;;;;;;;;;8.00;89.47;98709.12;107458;279;96201;-52
2023/10/20 01:00:34;;;;;;;;;;;;;;;8.01;89.49;98708.41;107415;279;98788;-51
2023/10/20 01:03:13;;;;;;;;;;;;;;;7.96;89.51;98707.90;107426;279;121117;-52
2023/10/20 01:05:50;;;;;;;;;;;;;;;7.98;89.56;98700.98;107424;279;106199;-52
2023/10/20 01:08:22;;;;;;;;;;;;;;;7.96;89.62;98698.55;107405;279;114772;-56
2023/10/20 01:11:00;;;;;;;;;;;;;;;7.97;89.62;98691.40;107449;279;97484;-55
2023/10/20 01:13:37;;;;;;;;;;;;;;;7.99;89.53;98685.00;107456;279;96966;-51
2023/10/20 01:16:14;;;;;;;;;;;;;;;7.96;89.82;98675.27;107436;279;119743;-50
2023/10/20 01:18:49;;;;;;;;;;;;;;;7.96;89.81;98667.61;107450;279;107165;-52
2023/10/20 01:21:26;;;;;;;;;;;;;;;7.97;89.87;98661.85;107443;279;114938;-53
2023/10/20 01:24:10;;;;;;;;;;;;;;;7.96;89.78;98663.39;107493;279;97177;-57
2023/10/20 01:26:48;;;;;;;;;;;;;;;7.92;89.95;98649.63;107495;279;97176;-57
2023/10/20 01:29:25;;;;;;;;;;;;;;;7.91;89.88;98637.92;107478;279;120627;-53
2023/10/20 01:32:06;;;;;;;;;;;;;;;7.92;90.03;98627.30;107501;279;105251;-53
2023/10/20 01:34:42;;;;;;;;;;;;;;;7.93;90.19;98637.92;107455;279;113564;-56
2023/10/20 01:37:15;;;;;;;;;;;;;;;7.93;90.15;98632.47;107478;279;96430;-56
2023/10/20 01:39:55;;;;;;;;;;;;;;;7.94;90.13;98624.69;107486;279;97569;-53
2023/10/20 01:42:29;;;;;;;;;;;;;;;7.95;90.32;98620.54;107410;279;121469;-55
2023/10/20 01:45:05;;;;;;;;;;;;;;;7.96;90.48;98619.41;107428;279;106530;-51
2023/10/20 01:47:42;;;;;;;;;;;;;;;7.96;90.37;98620.63;107458;279;113915;-54
2023/10/20 01:50:18;;;;;;;;;;;;;;;7.97;90.40;98623.08;107393;279;95973;-55
2023/10/20 01:52:52;;;;;;;;;;;;;;;7.92;90.46;98625.85;107389;279;97956;-55
2023/10/20 01:55:31;;;;;;;;;;;;;;;7.97;90.39;98628.39;107410;279;121120;-56
2023/10/20 01:58:08;;;;;;;;;;;;;;;8.00;90.45;98643.27;107431;279;106325;-51
2023/10/20 02:00:45;;;;;;;;;;;;;;;8.00;90.32;98646.90;107390;279;114698;-52
2023/10/20 02:03:24;;;;;;;;;;;;;;;7.98;90.53;98648.08;107443;279;96112;-51
2023/10/20 02:06:04;;;;;;;;;;;;;;;8.02;90.32;98652.31;107479;279;97521;-51
2023/10/20 02:08:40;;;;;;;;;;;;;;;8.07;90.45;98648.11;107475;279;121900;-53
2023/10/20 02:11:17;;;;;;;;;;;;;;;8.08;90.29;98642.92;107449;279;105263;-54
2023/10/20 02:13:56;;;;;;;;;;;;;;;8.03;90.54;98641.38;107509;279;113918;-51
2023/10/20 02:16:31;;;;;;;;;;;;;;;8.04;90.60;98643.97;107497;279;97300;-51
2023/10/20 02:19:10;;;;;;;;;;;;;;;8.04;90.69;98636.28;107509;279;96232;-53
2023/10/20 02:21:47;;;;;;;;;;;;;;;8.05;90.60;98631.77;107494;279;121333;-52
2023/10/20 02:24:21;;;;;;;;;;;;;;;8.05;90.71;98621.79;107513;279;104419;-51
2023/10/20 02:26:55;;;;;;;;;;;;;;;7.99;90.89;98619.72;107443;279;114129;-51
2023/10/20 02:29:29;;;;;;;;;;;;;;;8.00;90.88;98618.24;107442;279;94705;-52
2023/10/20 02:32:05;;;;;;;;;;;;;;;8.03;90.87;98619.73;107475;279;97622;-53
2023/10/20 02:34:38;;;;;;;;;;;;;;;8.02;91.06;98614.96;107431;279;120528;-56
2023/10/20 02:37:14;;;;;;;;;;;;;;;8.01;91.00;98612.72;107445;279;105595;-56
2023/10/20 02:39:50;;;;;;;;;;;;;;;7.98;91.10;98618.45;107459;279;115684;-53
2023/10/20 02:42:24;;;;;;;;;;;;;;;7.97;91.21;98620.30;107408;279;97280;-52
2023/10/20 02:44:56;;;;;;;;;;;;;;;7.94;91.42;98621.67;107460;279;96201;-52
2023/10/20 02:47:29;;;;;;;;;;;;;;;7.95;91.33;98614.38;107418;279;121220;-55
2023/10/20 02:50:02;;;;;;;;;;;;;;;7.96;91.35;98603.79;107034;279;476519;-56
2023/10/20 02:52:39;;;;;;;;;;;;;;;7.94;91.43;98597.21;107437;279;113568;-51
2023/10/20 02:55:15;;;;;;;;;;;;;;;7.93;91.61;98605.41;107451;279;95468;-51
2023/10/20 02:57:53;;;;;;;;;;;;;;;7.91;91.47;98613.19;107516;279;97152;-56
2023/10/20 03:00:33;;;;;;;;;;;;;;;7.95;91.45;98616.08;107439;279;119965;-54
2023/10/20 03:03:17;;;;;;;;;;;;;;;7.94;91.37;98614.91;107486;279;104441;-54
2023/10/20 03:06:00;;;;;;;;;;;;;;;7.94;91.49;98612.37;107491;279;115757;-55
2023/10/20 03:08:36;;;;;;;;;;;;;;;7.86;91.76;98608.92;107461;279;97316;-53
2023/10/20 03:11:11;;;;;;;;;;;;;;;7.84;91.87;98612.24;107459;279;96752;-53
2023/10/20 03:13:46;;;;;;;;;;;;;;;7.89;91.60;98617.02;107486;279;120146;-56
2023/10/20 03:16:28;;;;;;;;;;;;;;;7.88;91.68;98622.98;107432;279;105062;-57
2023/10/20 03:19:04;;;;;;;;;;;;;;;7.87;91.70;98620.05;107463;279;114076;-54
2023/10/20 03:21:42;;;;;;;;;;;;;;;7.89;91.75;98621.94;107429;279;97386;-55
2023/10/20 03:24:17;;;;;;;;;;;;;;;7.89;91.87;98618.00;107456;279;97247;-52
2023/10/20 03:26:53;;;;;;;;;;;;;;;7.82;91.95;98608.45;107409;279;120907;-52
2023/10/20 03:29:35;;;;;;;;;;;;;;;7.81;92.02;98603.91;107469;279;104666;-54
2023/10/20 03:32:16;;;;;;;;;;;;;;;7.79;92.03;98606.77;107418;279;114812;-54
2023/10/20 03:34:54;;;;;;;;;;;;;;;7.80;92.03;98613.06;107453;279;94434;-51
2023/10/20 03:37:36;;;;;;;;;;;;;;;7.73;92.14;98611.44;107414;279;97679;-54
2023/10/20 03:40:13;;;;;;;;;;;;;;;7.72;92.21;98604.41;107477;279;120820;-56
2023/10/20 03:42:57;;;;;;;;;;;;;;;7.76;92.14;98593.15;107497;279;105357;-53
2023/10/20 03:45:40;;;;;;;;;;;;;;;7.76;92.25;98587.16;107501;279;113571;-53
2023/10/20 03:48:19;;;;;;;;;;;;;;;7.76;92.32;98592.23;107530;279;94769;-52
2023/10/20 03:50:59;;;;;;;;;;;;;;;7.77;92.10;98602.16;107540;279;97574;-53
2023/10/20 03:53:45;;;;;;;;;;;;;;;7.76;92.25;98604.97;107478;279;119955;-55
2023/10/20 03:56:24;;;;;;;;;;;;;;;7.78;92.15;98598.77;107522;279;105292;-55
2023/10/20 03:59:07;;;;;;;;;;;;;;;7.79;92.08;98595.61;107437;279;114363;-56
2023/10/20 04:01:43;;;;;;;;;;;;;;;7.72;92.29;98587.91;107464;279;95220;-56
2023/10/20 04:04:24;;;;;;;;;;;;;;;7.66;92.38;98591.89;107471;279;97848;-55
2023/10/20 04:07:00;;;;;;;;;;;;;;;7.68;92.12;98593.77;107448;279;120791;-55
2023/10/20 04:09:38;;;;;;;;;;;;;;;7.65;92.16;98586.17;107422;279;104494;-52
2023/10/20 04:12:14;;;;;;;;;;;;;;;7.63;91.95;98584.11;107400;279;114243;-52
2023/10/20 04:14:58;;;;;;;;;;;;;;;7.56;92.03;98589.27;107420;279;97491;-52
2023/10/20 04:17:38;;;;;;;;;;;;;;;7.51;92.03;98589.68;107440;279;98020;-55
2023/10/20 04:20:18;;;;;;;;;;;;;;;7.46;92.00;98591.65;107470;279;120997;-56
2023/10/20 04:22:58;;;;;;;;;;;;;;;7.42;92.07;98592.02;107428;279;105600;-52
2023/10/20 04:25:39;;;;;;;;;;;;;;;7.38;92.20;98597.91;107468;279;113096;-53
2023/10/20 04:28:15;;;;;;;;;;;;;;;7.35;92.14;98601.77;107388;279;97141;-51
2023/10/20 04:48:20;;;;;;;;;;;;;;;7.19;92.27;98614.39;107441;279;120096;-55
2023/10/20 04:51:13;;;;;;;;;;;;;;;7.13;92.29;98613.24;107421;279;105624;-55
2023/10/20 04:53:54;;;;;;;;;;;;;;;7.13;92.26;98619.95;107408;279;113885;-52
2023/10/20 04:56:39;;;;;;;;;;;;;;;7.10;92.16;98616.31;107332;279;98530;-50
2023/10/20 04:59:22;;;;;;;;;;;;;;;7.06;92.30;98617.96;107421;279;97946;-56
2023/10/20 05:02:10;;;;;;;;;;;;;;;7.00;92.35;98619.31;107422;279;121130;-56
2023/10/20 05:04:52;;;;;;;;;;;;;;;7.01;92.34;98631.61;107482;279;105676;-56
2023/10/20 05:07:31;;;;;;;;;;;;;;;7.00;92.15;98636.16;107427;279;113345;-55
2023/10/20 05:10:09;;;;;;;;;;;;;;;7.06;92.20;98640.40;107453;279;96606;-51
2023/10/20 05:12:46;;;;;;;;;;;;;;;6.98;92.34;98642.77;107480;279;96835;-52
2023/10/20 05:15:24;;;;;;;;;;;;;;;6.94;92.32;98639.35;107506;279;120570;-53
2023/10/20 05:18:02;;;;;;;;;;;;;;;6.93;92.24;98636.06;107451;279;104744;-57
2023/10/20 05:20:38;;;;;;;;;;;;;;;6.93;92.29;98623.21;107507;279;114699;-56
2023/10/20 05:23:14;;;;;;;;;;;;;;;6.88;92.27;98624.80;107459;279;95864;-56
2023/10/20 05:25:55;;;;;;;;;;;;;;;6.95;92.32;98623.00;107504;279;97949;-55
2023/10/20 05:28:36;;;;;;;;;;;;;;;6.92;92.29;98629.77;107488;279;121615;-54
2023/10/20 05:31:15;;;;;;;;;;;;;;;6.87;92.48;98635.60;107397;279;105548;-55
2023/10/20 05:33:54;;;;;;;;;;;;;;;6.89;92.26;98636.60;107456;279;114850;-52
2023/10/20 05:36:30;;;;;;;;;;;;;;;6.90;92.35;98634.36;107408;279;96645;-51
2023/10/20 05:39:13;;;;;;;;;;;;;;;6.83;92.54;98629.45;107499;279;97944;-54
2023/10/20 05:41:48;;;;;;;;;;;;;;;6.84;92.39;98630.45;107426;279;120697;-54
2023/10/20 05:44:23;;;;;;;;;;;;;;;6.84;92.62;98634.16;107429;279;105150;-55
2023/10/20 05:46:58;;;;;;;;;;;;;;;6.84;92.50;98624.30;107428;279;114089;-55
2023/10/20 05:49:32;;;;;;;;;;;;;;;6.86;92.47;98626.68;107380;279;96724;-51
2023/10/20 05:52:08;;;;;;;;;;;;;;;6.83;92.54;98635.12;107458;279;98095;-51
2023/10/20 05:54:45;;;;;;;;;;;;;;;6.82;92.69;98638.98;107460;279;119664;-52
2023/10/20 05:57:22;;;;;;;;;;;;;;;6.77;92.83;98639.70;107435;279;103925;-53
2023/10/20 06:00:03;;;;;;;;;;;;;;;6.76;92.90;98645.33;107458;279;114905;-57
2023/10/20 06:02:47;;;;;;;;;;;;;;;6.73;92.94;98648.45;107407;279;95750;-56
2023/10/20 06:05:20;;;;;;;;;;;;;;;6.77;92.90;98649.36;107456;279;97628;-56
2023/10/20 06:08:01;;;;;;;;;;;;;;;6.80;92.65;98651.21;107474;279;120427;-54
2023/10/20 06:10:36;;;;;;;;;;;;;;;6.79;92.77;98664.19;107411;279;105928;-54
2023/10/20 06:13:15;;;;;;;;;;;;;;;6.77;92.97;98661.63;107475;279;116052;-55
2023/10/20 06:15:51;;;;;;;;;;;;;;;6.72;92.91;98665.63;107526;279;96982;-56
2023/10/20 06:18:30;;;;;;;;;;;;;;;6.64;93.39;98665.92;107387;279;98223;-51
2023/10/20 06:21:07;;;;;;;;;;;;;;;6.67;93.11;98670.84;107430;279;120541;-51
2023/10/20 06:23:43;;;;;;;;;;;;;;;6.70;92.98;98682.02;107413;279;105841;-55
2023/10/20 06:26:21;;;;;;;;;;;;;;;6.70;93.30;98678.65;107442;279;114964;-56
2023/10/20 06:28:56;;;;;;;;;;;;;;;6.69;93.20;98678.23;107426;279;97697;-53
2023/10/20 06:31:43;;;;;;;;;;;;;;;6.72;92.96;98675.29;107459;279;95771;-54
2023/10/20 06:34:23;;;;;;;;;;;;;;;6.79;92.93;98673.85;107440;279;121496;-55
2023/10/20 06:37:08;;;;;;;;;;;;;;;6.72;93.08;98664.19;107382;279;107124;-57
2023/10/20 06:39:43;;;;;;;;;;;;;;;6.70;93.11;98662.67;107387;279;115930;-58
2023/10/20 06:42:18;;;;;;;;;;;;;;;6.67;93.33;98655.98;107453;279;97385;-57
2023/10/20 06:44:57;;;;;;;;;;;;;;;6.66;93.38;98652.96;107438;276;95855;-52
2023/10/20 06:47:34;;;;;;;;;;;;;;;6.67;93.53;98650.11;107421;279;120721;-54
2023/10/20 06:50:10;;;;;;;;;;;;;;;6.67;93.41;98644.23;107469;279;104428;-55
2023/10/20 06:52:48;;;;;;;;;;;;;;;6.69;93.32;98647.30;107458;279;115157;-53
2023/10/20 06:55:24;;;;;;;;;;;;;;;6.66;93.52;98648.30;107456;279;95456;-52
2023/10/20 06:58:09;;;;;;;;;;;;;;;6.68;93.51;98652.84;107565;279;98188;-56
2023/10/20 07:00:47;;;;;;;;;;;;;;;6.68;93.57;98651.44;107538;279;118977;-57
2023/10/20 07:03:22;;;;;;;;;;;;;;;6.68;93.41;98636.36;107517;279;105430;-56
2023/10/20 07:06:07;;;;;;;;;;;;;;;6.72;93.85;98634.18;107452;279;114565;-56
2023/10/20 07:08:45;;;;;;;;;;;;;;;6.79;93.60;98630.04;107467;279;96443;-51
2023/10/20 07:11:20;;;;;;;;;;;;;;;6.77;93.61;98627.57;107371;279;98797;-51
2023/10/20 07:13:53;;;;;;;;;;;;;;;6.74;93.72;98628.40;107357;279;120560;-53
2023/10/20 07:16:33;;;;;;;;;;;;;;;6.74;93.68;98627.45;107475;279;105478;-53
2023/10/20 07:19:09;;;;;;;;;;;;;;;6.78;93.61;98633.96;107405;279;114420;-57
2023/10/20 07:21:53;;;;;;;;;;;;;;;6.82;93.37;98642.25;107329;279;97958;-56
2023/10/20 07:24:30;;;;;;;;;;;;;;;6.87;93.56;98654.77;107472;279;96846;-52
2023/10/20 07:27:08;;;;;;;;;;;;;;;6.89;93.35;98655.43;107449;279;119937;-52
2023/10/20 07:29:42;;;;;;;;;;;;;;;6.90;93.26;98660.52;107457;279;104979;-51
2023/10/20 07:32:18;;;;;;;;;;;;;;;6.89;93.39;98659.72;107342;279;115647;-52
2023/10/20 07:34:58;;;;;;;;;;;;;;;6.91;93.38;98657.27;107448;279;95259;-52
2023/10/20 07:37:44;;;;;;;;;;;;;;;6.89;93.70;98665.50;107500;279;102164;-55
2023/10/20 07:40:20;;;;;;;;;;;;;;;6.87;93.73;98666.77;107501;279;121159;-54
2023/10/20 07:42:57;;;;;;;;;;;;;;;6.87;93.49;98664.92;107506;279;105867;-52
2023/10/20 07:45:40;;;;;;;;;;;;;;;6.86;93.60;98663.52;107462;279;113468;-51
2023/10/20 07:48:17;;;;;;;;;;;;;;;6.83;93.66;98661.54;107534;279;96755;-56
2023/10/20 07:50:59;;;;;;;;;;;;;;;6.78;93.73;98653.33;107462;279;97112;-56
2023/10/20 07:53:32;;;;;;;;;;;;;;;6.85;93.66;98649.08;107412;279;121244;-54
2023/10/20 07:56:06;;;;;;;;;;;;;;;6.87;93.69;98646.09;107438;279;106153;-54
2023/10/20 07:58:42;;;;;;;;;;;;;;;6.89;93.71;98643.70;107432;279;115511;-57
2023/10/20 08:01:15;;;;;;;;;;;;;;;6.95;93.72;98639.23;107429;279;96329;-57
2023/10/20 08:03:54;;;;;;;;;;;;;;;6.94;93.69;98638.98;107477;279;95907;-56
2023/10/20 08:06:28;;;;;;;;;;;;;;;6.96;93.72;98630.30;107411;279;120184;-56
2023/10/20 08:09:02;;;;;;;;;;;;;;;6.96;93.85;98625.56;107486;279;105384;-56
2023/10/20 08:11:39;;;;;;;;;;;;;;;6.97;93.64;98626.37;107412;279;113841;-57
2023/10/20 08:14:12;;;;;;;;;;;;;;;7.01;93.66;98632.85;107444;279;95138;-56
2023/10/20 08:16:47;;;;;;;;;;;;;;;6.99;93.58;98635.29;107446;279;97814;-56
2023/10/20 08:19:23;;;;;;;;;;;;;;;7.03;93.53;98631.28;107451;279;120256;-57
2023/10/20 08:22:00;;;;;;;;;;;;;;;7.08;93.57;98632.63;107456;279;105637;-57
2023/10/20 08:24:42;;;;;;;;;;;;;;;7.08;93.47;98637.17;107569;279;113965;-53
2023/10/20 08:27:23;;;;;;;;;;;;;;;7.08;93.43;98642.48;107500;279;97010;-53
2023/10/20 08:30:05;;;;;;;;;;;;;;;7.04;93.51;98656.11;107480;279;97839;-51
2023/10/20 08:32:43;;;;;;;;;;;;;;;7.00;93.50;98653.70;107486;279;122519;-55
2023/10/20 08:35:20;;;;;;;;;;;;;;;7.03;93.55;98644.63;107477;279;106733;-56
2023/10/20 08:37:58;;;;;;;;;;;;;;;7.06;93.57;98640.52;107464;279;114643;-53
2023/10/20 08:40:39;;;;;;;;;;;;;;;7.03;93.44;98634.96;107375;279;96773;-51
2023/10/20 08:43:20;;;;;;;;;;;;;;;7.06;93.47;98635.58;107420;279;97119;-52
2023/10/20 08:45:56;;;;;;;;;;;;;;;7.07;93.37;98637.71;107425;279;119892;-52
2023/10/20 08:48:37;;;;;;;;;;;;;;;7.06;93.37;98633.17;107441;279;104985;-54
2023/10/20 08:51:12;;;;;;;;;;;;;;;7.10;93.30;98633.38;107392;279;114492;-54
2023/10/20 08:53:51;;;;;;;;;;;;;;;7.12;93.41;98633.98;107411;280;97092;-52
2023/10/20 08:56:28;;;;;;;;;;;;;;;7.09;93.53;98632.55;107449;279;96485;-53
2023/10/20 08:59:06;;;;;;;;;;;;;;;7.13;93.53;98631.88;107448;279;120806;-52
2023/10/20 09:01:44;;;;;;;;;;;;;;;7.16;93.47;98626.71;107477;279;105974;-52
2023/10/20 09:04:24;;;;;;;;;;;;;;;7.13;93.39;98623.58;107476;279;113065;-56
2023/10/20 09:07:03;;;;;;;;;;;;;;;7.11;93.62;98624.87;107473;279;96306;-55
2023/10/20 09:09:37;;;;;;;;;;;;;;;7.13;93.49;98624.87;107483;280;97788;-52
2023/10/20 09:12:13;;;;;;;;;;;;;;;7.11;93.47;98614.29;107480;279;120975;-52
2023/10/20 09:14:46;;;;;;;;;;;;;;;7.09;93.60;98613.88;107487;279;106140;-57
2023/10/20 09:17:26;;;;;;;;;;;;;;;7.05;93.83;98610.13;107457;279;114768;-57
2023/10/20 09:20:11;;;;;;;;;;;;;;;7.06;93.96;98610.92;107425;279;96917;-56
2023/10/20 09:22:47;;;;;;;;;;;;;;;7.07;93.89;98616.85;107423;279;96416;-56
2023/10/20 09:25:25;;;;;;;;;;;;;;;7.10;93.79;98624.73;107403;279;120875;-57
2023/10/20 09:28:01;;;;;;;;;;;;;;;7.09;93.96;98622.02;107450;279;106238;-56
2023/10/20 09:30:41;;;;;;;;;;;;;;;7.12;93.76;98619.36;107455;279;115360;-56
2023/10/20 09:33:16;;;;;;;;;;;;;;;7.10;93.88;98616.55;107479;279;96409;-53
2023/10/20 09:35:54;;;;;;;;;;;;;;;7.12;94.01;98616.77;107428;279;98590;-53
2023/10/20 09:38:31;;;;;;;;;;;;;;;7.12;93.90;98613.70;107454;279;120723;-57
2023/10/20 09:41:12;;;;;;;;;;;;;;;7.12;94.05;98613.46;107444;279;104933;-57
2023/10/20 09:43:52;;;;;;;;;;;;;;;7.09;93.81;98611.19;107455;279;114020;-55
2023/10/20 09:46:38;;;;;;;;;;;;;;;7.13;93.81;98611.89;107439;279;97110;-56
2023/10/20 09:49:18;;;;;;;;;;;;;;;7.10;93.91;98604.49;107403;279;97263;-51
2023/10/20 09:52:00;;;;;;;;;;;;;;;7.10;94.02;98600.36;107459;279;121015;-52
2023/10/20 09:54:38;;;;;;;;;;;;;;;7.09;93.81;98600.53;107464;279;103956;-53
2023/10/20 09:57:14;;;;;;;;;;;;;;;7.12;93.76;98598.17;107474;279;113355;-53
2023/10/20 10:00:04;;;;;;;;;;;;;;;7.09;94.02;98593.18;107473;279;96107;-53
2023/10/20 10:02:41;;;;;;;;;;;;;;;7.02;94.01;98589.95;107469;279;97501;-52
2023/10/20 10:05:24;;;;;;;;;;;;;;;7.03;93.91;98579.83;107443;279;120638;-51
2023/10/20 10:08:10;;;;;;;;;;;;;;;7.04;93.87;98573.58;107449;279;107367;-55
2023/10/20 10:10:48;;;;;;;;;;;;;;;6.99;93.88;98561.91;107382;279;113400;-55
2023/10/20 10:13:35;;;;;;;;;;;;;;;7.01;93.83;98558.56;107403;279;96565;-54
2023/10/20 10:16:22;;;;;;;;;;;;;;;7.00;93.96;98553.69;107411;279;97112;-53
2023/10/20 10:19:08;;;;;;;;;;;;;;;6.96;94.07;98558.95;107437;279;121005;-58
2023/10/20 10:21:43;;;;;;;;;;;;;;;6.95;94.00;98564.11;107404;279;106010;-58
2023/10/20 10:24:20;;;;;;;;;;;;;;;6.97;93.91;98550.47;107419;279;112583;-57
2023/10/20 10:26:57;;;;;;;;;;;;;;;6.98;93.96;98547.75;107447;279;97000;-58
2023/10/20 10:29:53;;;;;;;;;;;;;;;6.99;93.92;98547.77;107451;279;95291;-52
2023/10/20 10:32:35;;;;;;;;;;;;;;;6.95;94.02;98545.61;107464;279;120769;-52
2023/10/20 10:35:18;;;;;;;;;;;;;;;6.92;94.20;98539.05;107470;279;105361;-57
2023/10/20 10:37:57;;;;;;;;;;;;;;;6.88;94.35;98542.70;107427;279;114773;-53
2023/10/20 10:40:36;;;;;;;;;;;;;;;6.91;94.42;98542.77;107452;279;96390;-51
2023/10/20 10:43:16;;;;;;;;;;;;;;;6.92;94.40;98542.81;107489;279;97627;-56
2023/10/20 10:45:55;;;;;;;;;;;;;;;6.93;94.26;98542.20;107436;279;120603;-57
2023/10/20 10:48:35;;;;;;;;;;;;;;;6.88;94.30;98541.21;107093;279;479542;-57
2023/10/20 10:51:09;;;;;;;;;;;;;;;6.91;94.24;98537.13;107389;279;114393;-57
2023/10/20 10:53:43;;;;;;;;;;;;;;;6.92;94.34;98532.98;107489;279;95203;-57
2023/10/20 10:56:21;;;;;;;;;;;;;;;6.90;94.28;98530.11;107458;279;96800;-57
2023/10/20 10:59:02;;;;;;;;;;;;;;;6.83;94.48;98528.05;107442;279;120349;-53
2023/10/20 11:01:38;;;;;;;;;;;;;;;6.88;94.20;98535.02;107446;279;103657;-52
2023/10/20 11:04:14;;;;;;;;;;;;;;;6.91;94.35;98537.98;107475;279;114296;-57
2023/10/20 11:06:50;;;;;;;;;;;;;;;6.86;94.41;98536.68;107360;279;96114;-57
2023/10/20 11:09:27;;;;;;;;;;;;;;;6.87;94.28;98537.34;107486;279;96904;-57
2023/10/20 11:12:02;;;;;;;;;;;;;;;6.84;94.48;98536.47;107480;279;119567;-57
2023/10/20 11:14:39;;;;;;;;;;;;;;;6.72;94.55;98542.03;107452;279;105875;-52
2023/10/20 11:17:14;;;;;;;;;;;;;;;6.72;94.39;98544.06;107485;279;115056;-52
2023/10/20 11:19:47;;;;;;;;;;;;;;;6.74;94.51;98555.75;107502;279;94661;-52
2023/10/20 11:22:29;;;;;;;;;;;;;;;6.78;94.47;98560.77;107454;279;97239;-52
2023/10/20 11:25:05;;;;;;;;;;;;;;;6.79;94.42;98555.40;107467;279;118888;-57
2023/10/20 11:27:46;;;;;;;;;;;;;;;6.79;94.47;98553.30;107492;279;106214;-55
2023/10/20 11:30:26;;;;;;;;;;;;;;;6.71;94.70;98557.23;107428;279;114909;-55
2023/10/20 11:33:00;;;;;;;;;;;;;;;6.67;94.68;98566.41;107434;279;94183;-53
2023/10/20 11:35:34;;;;;;;;;;;;;;;6.70;94.35;98573.34;107357;279;98818;-53
2023/10/20 11:38:09;;;;;;;;;;;;;;;6.72;94.50;98578.70;107459;279;121390;-55
2023/10/20 11:40:49;;;;;;;;;;;;;;;6.72;94.68;98584.85;107404;279;105907;-56
2023/10/20 11:43:27;;;;;;;;;;;;;;;6.71;94.41;98584.89;107442;279;114200;-52
2023/10/20 11:46:06;;;;;;;;;;;;;;;6.72;94.64;98582.00;107431;279;95309;-53
2023/10/20 11:48:40;;;;;;;;;;;;;;;6.75;94.28;98585.88;107375;279;96260;-57
2023/10/20 11:51:18;;;;;;;;;;;;;;;6.78;94.38;98588.92;107452;279;120618;-57
2023/10/20 11:53:59;;;;;;;;;;;;;;;6.77;94.24;98591.11;107488;279;106130;-56
2023/10/20 11:56:40;;;;;;;;;;;;;;;6.72;94.47;98588.52;107447;279;114422;-56
2023/10/20 11:59:22;;;;;;;;;;;;;;;6.73;94.24;98595.58;107503;279;97455;-57
2023/10/20 12:01:57;;;;;;;;;;;;;;;6.74;94.36;98595.41;107516;279;96523;-57
2023/10/20 12:04:37;;;;;;;;;;;;;;;6.72;94.18;98592.12;107478;279;121303;-55
2023/10/20 12:07:14;;;;;;;;;;;;;;;6.71;94.31;98594.43;107482;279;105166;-55
2023/10/20 12:09:53;;;;;;;;;;;;;;;6.76;94.27;98587.19;107339;279;113271;-53
2023/10/20 12:12:26;;;;;;;;;;;;;;;6.79;94.12;98583.81;107491;279;96655;-53
2023/10/20 12:15:01;;;;;;;;;;;;;;;6.80;94.06;98576.17;107421;279;97955;-53
2023/10/20 12:17:41;;;;;;;;;;;;;;;6.73;94.28;98576.09;107410;279;119233;-56
2023/10/20 12:20:21;;;;;;;;;;;;;;;6.76;94.19;98580.63;107446;279;106024;-58
2023/10/20 12:22:59;;;;;;;;;;;;;;;6.73;94.14;98581.58;107439;279;115067;-54
2023/10/20 12:25:33;;;;;;;;;;;;;;;6.71;94.15;98580.85;107426;279;97924;-54
2023/10/20 12:28:09;;;;;;;;;;;;;;;6.66;94.29;98584.16;107443;279;95940;-53
2023/10/20 12:30:42;;;;;;;;;;;;;;;6.68;94.35;98585.92;107369;279;120863;-52
2023/10/20 12:33:25;;;;;;;;;;;;;;;6.63;94.35;98584.46;107514;279;104603;-55
2023/10/20 12:36:05;;;;;;;;;;;;;;;6.61;94.33;98575.38;107428;279;115030;-57
2023/10/20 12:38:43;;;;;;;;;;;;;;;6.65;94.31;98573.10;107489;279;96629;-52
2023/10/20 12:41:19;;;;;;;;;;;;;;;6.68;94.23;98576.07;107458;279;98119;-56
2023/10/20 12:43:57;;;;;;;;;;;;;;;6.70;94.07;98571.64;107484;280;120742;-57
2023/10/20 12:46:38;;;;;;;;;;;;;;;6.74;93.97;98572.88;107490;279;105141;-58
2023/10/20 12:49:18;;;;;;;;;;;;;;;6.74;93.91;98572.21;107473;279;113255;-53
2023/10/20 12:51:55;;;;;;;;;;;;;;;6.70;94.07;98574.90;107450;280;96756;-58
2023/10/20 12:54:29;;;;;;;;;;;;;;;6.67;94.02;98573.84;107509;279;97453;-57
2023/10/20 12:57:08;;;;;;;;;;;;;;;6.70;94.22;98576.52;107481;279;120023;-57
2023/10/20 12:59:43;;;;;;;;;;;;;;;6.64;94.14;98577.30;107482;279;104909;-52
2023/10/20 13:02:22;;;;;;;;;;;;;;;6.61;94.23;98583.67;107456;279;114362;-51
2023/10/20 13:04:55;;;;;;;;;;;;;;;6.56;94.21;98580.70;107348;280;96829;-55
2023/10/20 13:07:29;;;;;;;;;;;;;;;6.61;94.03;98573.85;107490;279;95023;-52
2023/10/20 13:10:04;;;;;;;;;;;;;;;6.63;94.13;98568.56;107472;279;119165;-56
2023/10/20 13:12:39;;;;;;;;;;;;;;;6.65;94.12;98564.85;107481;279;104443;-54
2023/10/20 13:15:14;;;;;;;;;;;;;;;6.62;94.34;98567.77;107438;279;114459;-54
2023/10/20 13:17:48;;;;;;;;;;;;;;;6.56;94.19;98566.75;107403;279;97329;-55
2023/10/20 13:20:25;;;;;;;;;;;;;;;6.54;94.11;98568.33;107456;279;97466;-54
2023/10/20 13:23:01;;;;;;;;;;;;;;;6.58;94.16;98576.04;107435;279;121547;-54
2023/10/20 13:25:36;;;;;;;;;;;;;;;6.58;94.16;98585.48;107498;279;104548;-54
2023/10/20 13:28:10;;;;;;;;;;;;;;;6.60;94.04;98595.14;107376;280;114919;-56
2023/10/20 13:30:44;;;;;;;;;;;;;;;6.58;94.18;98600.67;107466;279;96181;-57
2023/10/20 13:33:21;;;;;;;;;;;;;;;6.51;94.19;98595.77;107474;279;96083;-54
2023/10/20 13:36:00;;;;;;;;;;;;;;;6.48;94.25;98591.81;107474;279;121447;-52
2023/10/20 13:38:35;;;;;;;;;;;;;;;6.47;94.24;98592.52;107504;279;105510;-57
2023/10/20 13:41:13;;;;;;;;;;;;;;;6.46;94.30;98589.45;107454;279;112877;-58
2023/10/20 13:43:50;;;;;;;;;;;;;;;6.48;94.29;98581.88;107463;279;95987;-55
2023/10/20 13:46:24;;;;;;;;;;;;;;;6.48;94.27;98580.20;107451;279;96390;-55
2023/10/20 13:49:00;;;;;;;;;;;;;;;6.45;94.16;98576.83;107439;279;121231;-56
2023/10/20 13:51:41;;;;;;;;;;;;;;;6.43;94.30;98571.34;107463;279;105830;-56
2023/10/20 13:54:20;;;;;;;;;;;;;;;6.44;94.23;98569.86;107467;279;114220;-52
2023/10/20 13:56:53;;;;;;;;;;;;;;;6.43;94.12;98567.67;107420;279;95996;-52
2023/10/20 13:59:32;;;;;;;;;;;;;;;6.45;94.22;98570.19;107482;279;97831;-52
2023/10/20 14:02:08;;;;;;;;;;;;;;;6.40;94.22;98562.72;107434;279;121569;-52
2023/10/20 14:04:45;;;;;;;;;;;;;;;6.37;94.34;98553.85;107459;279;105495;-54
2023/10/20 14:07:26;;;;;;;;;;;;;;;6.39;94.36;98546.05;107414;279;115359;-53